sensor_id;sensor_type;location;lat;lon;timestamp;P1;durP1;ratioP1;P2;durP2;ratioP2
11171;SDS011;5642;50.830;12.082;2023-07-13T00:00:36;0.50;;;0.50;;
11171;SDS011;5642;50.830;12.082;2023-07-13T00:03:04;2.10;;;0.47;;
11171;SDS011;5642;50.830;12.082;2023-07-13T00:05:44;0.82;;;0.55;;
11171;SDS011;5642;50.830;12.082;2023-07-13T00:08:16;0.50;;;0.50;;
11171;SDS011;5642;50.830;12.082;2023-07-13T00:10:47;0.40;;;0.40;;
11171;SDS011;5642;50.830;12.082;2023-07-13T00:13:17;0.60;;;0.60;;
11171;SDS011;5642;50.830;12.082;2023-07-13T00:15:46;0.93;;;0.50;;
11171;SDS011;5642;50.830;12.082;2023-07-13T00:18:13;2.05;;;0.50;;
11171;SDS011;5642;50.830;12.082;2023-07-13T00:20:40;0.50;;;0.50;;
11171;SDS011;5642;50.830;12.082;2023-07-13T00:23:08;0.52;;;0.38;;
11171;SDS011;5642;50.830;12.082;2023-07-13T00:25:38;0.68;;;0.40;;
11171;SDS011;5642;50.830;12.082;2023-07-13T00:28:04;0.98;;;0.47;;
11171;SDS011;5642;50.830;12.082;2023-07-13T00:30:31;1.52;;;0.43;;
11171;SDS011;5642;50.830;12.082;2023-07-13T00:32:57;0.40;;;0.40;;
11171;SDS011;5642;50.830;12.082;2023-07-13T00:35:30;0.50;;;0.50;;
11171;SDS011;5642;50.830;12.082;2023-07-13T00:37:57;0.50;;;0.50;;
11171;SDS011;5642;50.830;12.082;2023-07-13T00:40:25;0.43;;;0.43;;
11171;SDS011;5642;50.830;12.082;2023-07-13T00:42:52;0.60;;;0.60;;
11171;SDS011;5642;50.830;12.082;2023-07-13T00:47:47;0.60;;;0.60;;
11171;SDS011;5642;50.830;12.082;2023-07-13T00:50:14;0.75;;;0.75;;
11171;SDS011;5642;50.830;12.082;2023-07-13T00:52:44;0.55;;;0.45;;
11171;SDS011;5642;50.830;12.082;2023-07-13T00:55:13;0.30;;;0.30;;
11171;SDS011;5642;50.830;12.082;2023-07-13T00:57:44;0.30;;;0.30;;
11171;SDS011;5642;50.830;12.082;2023-07-13T01:00:12;0.40;;;0.40;;
11171;SDS011;5642;50.830;12.082;2023-07-13T01:02:41;0.38;;;0.38;;
11171;SDS011;5642;50.830;12.082;2023-07-13T01:05:13;0.50;;;0.50;;
11171;SDS011;5642;50.830;12.082;2023-07-13T01:07:44;0.60;;;0.60;;
11171;SDS011;5642;50.830;12.082;2023-07-13T01:10:11;0.60;;;0.60;;
11171;SDS011;5642;50.830;12.082;2023-07-13T01:12:39;1.30;;;0.50;;
11171;SDS011;5642;50.830;12.082;2023-07-13T01:18:08;0.40;;;0.40;;
11171;SDS011;5642;50.830;12.082;2023-07-13T01:23:24;0.40;;;0.40;;
11171;SDS011;5642;50.830;12.082;2023-07-13T01:26:11;0.45;;;0.45;;
11171;SDS011;5642;50.830;12.082;2023-07-13T01:28:57;0.43;;;0.43;;
11171;SDS011;5642;50.830;12.082;2023-07-13T01:31:25;0.68;;;0.47;;
11171;SDS011;5642;50.830;12.082;2023-07-13T01:33:53;0.50;;;0.50;;
11171;SDS011;5642;50.830;12.082;2023-07-13T01:36:22;0.47;;;0.47;;
11171;SDS011;5642;50.830;12.082;2023-07-13T01:38:49;0.68;;;0.50;;
11171;SDS011;5642;50.830;12.082;2023-07-13T01:41:17;0.50;;;0.50;;
11171;SDS011;5642;50.830;12.082;2023-07-13T01:43:45;0.70;;;0.70;;
11171;SDS011;5642;50.830;12.082;2023-07-13T01:46:14;0.60;;;0.52;;
11171;SDS011;5642;50.830;12.082;2023-07-13T01:49:00;1.33;;;0.50;;
11171;SDS011;5642;50.830;12.082;2023-07-13T01:51:45;0.40;;;0.40;;
11171;SDS011;5642;50.830;12.082;2023-07-13T01:54:34;0.60;;;0.60;;
11171;SDS011;5642;50.830;12.082;2023-07-13T01:57:19;0.50;;;0.50;;
11171;SDS011;5642;50.830;12.082;2023-07-13T01:59:46;0.70;;;0.55;;
11171;SDS011;5642;50.830;12.082;2023-07-13T02:02:14;0.50;;;0.50;;
11171;SDS011;5642;50.830;12.082;2023-07-13T02:04:40;0.45;;;0.45;;
11171;SDS011;5642;50.830;12.082;2023-07-13T02:07:08;0.40;;;0.40;;
11171;SDS011;5642;50.830;12.082;2023-07-13T02:09:35;0.60;;;0.60;;
11171;SDS011;5642;50.830;12.082;2023-07-13T02:12:01;0.50;;;0.50;;
11171;SDS011;5642;50.830;12.082;2023-07-13T02:14:27;0.65;;;0.60;;
11171;SDS011;5642;50.830;12.082;2023-07-13T02:16:53;0.55;;;0.55;;
11171;SDS011;5642;50.830;12.082;2023-07-13T02:19:19;0.68;;;0.68;;
11171;SDS011;5642;50.830;12.082;2023-07-13T02:21:45;0.98;;;0.70;;
11171;SDS011;5642;50.830;12.082;2023-07-13T02:24:11;0.52;;;0.52;;
11171;SDS011;5642;50.830;12.082;2023-07-13T02:26:46;0.50;;;0.50;;
11171;SDS011;5642;50.830;12.082;2023-07-13T02:29:12;0.63;;;0.63;;
11171;SDS011;5642;50.830;12.082;2023-07-13T02:31:38;0.70;;;0.70;;
11171;SDS011;5642;50.830;12.082;2023-07-13T02:34:05;0.65;;;0.65;;
11171;SDS011;5642;50.830;12.082;2023-07-13T02:36:31;0.70;;;0.70;;
11171;SDS011;5642;50.830;12.082;2023-07-13T02:39:00;1.10;;;0.68;;
11171;SDS011;5642;50.830;12.082;2023-07-13T02:41:28;0.70;;;0.60;;
11171;SDS011;5642;50.830;12.082;2023-07-13T02:43:54;0.60;;;0.60;;
11171;SDS011;5642;50.830;12.082;2023-07-13T02:46:28;0.50;;;0.50;;
11171;SDS011;5642;50.830;12.082;2023-07-13T02:49:05;2.67;;;0.60;;
11171;SDS011;5642;50.830;12.082;2023-07-13T02:51:32;0.60;;;0.60;;
11171;SDS011;5642;50.830;12.082;2023-07-13T02:54:02;0.50;;;0.50;;
11171;SDS011;5642;50.830;12.082;2023-07-13T02:56:30;0.47;;;0.47;;
11171;SDS011;5642;50.830;12.082;2023-07-13T02:58:57;0.85;;;0.65;;
11171;SDS011;5642;50.830;12.082;2023-07-13T03:01:24;0.90;;;0.50;;
11171;SDS011;5642;50.830;12.082;2023-07-13T03:03:51;0.60;;;0.60;;
11171;SDS011;5642;50.830;12.082;2023-07-13T03:06:17;0.65;;;0.50;;
11171;SDS011;5642;50.830;12.082;2023-07-13T03:08:44;0.65;;;0.65;;
11171;SDS011;5642;50.830;12.082;2023-07-13T03:11:12;1.15;;;0.60;;
11171;SDS011;5642;50.830;12.082;2023-07-13T03:13:41;0.60;;;0.60;;
11171;SDS011;5642;50.830;12.082;2023-07-13T03:16:08;0.60;;;0.60;;
11171;SDS011;5642;50.830;12.082;2023-07-13T03:18:36;0.80;;;0.80;;
11171;SDS011;5642;50.830;12.082;2023-07-13T03:21:02;1.63;;;0.60;;
11171;SDS011;5642;50.830;12.082;2023-07-13T03:23:29;0.70;;;0.60;;
11171;SDS011;5642;50.830;12.082;2023-07-13T03:26:09;0.65;;;0.60;;
11171;SDS011;5642;50.830;12.082;2023-07-13T03:28:42;0.65;;;0.63;;
11171;SDS011;5642;50.830;12.082;2023-07-13T03:31:10;0.68;;;0.68;;
11171;SDS011;5642;50.830;12.082;2023-07-13T03:33:41;0.82;;;0.73;;
11171;SDS011;5642;50.830;12.082;2023-07-13T03:36:10;1.35;;;0.63;;
11171;SDS011;5642;50.830;12.082;2023-07-13T03:38:40;0.68;;;0.68;;
11171;SDS011;5642;50.830;12.082;2023-07-13T03:41:06;0.65;;;0.65;;
11171;SDS011;5642;50.830;12.082;2023-07-13T03:43:32;0.73;;;0.70;;
11171;SDS011;5642;50.830;12.082;2023-07-13T03:45:58;0.70;;;0.70;;
11171;SDS011;5642;50.830;12.082;2023-07-13T03:48:24;0.55;;;0.55;;
11171;SDS011;5642;50.830;12.082;2023-07-13T03:50:51;0.80;;;0.80;;
11171;SDS011;5642;50.830;12.082;2023-07-13T03:53:17;0.60;;;0.60;;
11171;SDS011;5642;50.830;12.082;2023-07-13T03:55:44;0.65;;;0.65;;
11171;SDS011;5642;50.830;12.082;2023-07-13T04:00:52;0.73;;;0.73;;
11171;SDS011;5642;50.830;12.082;2023-07-13T04:03:19;0.90;;;0.70;;
11171;SDS011;5642;50.830;12.082;2023-07-13T04:05:45;0.77;;;0.77;;
11171;SDS011;5642;50.830;12.082;2023-07-13T04:08:11;0.60;;;0.60;;
11171;SDS011;5642;50.830;12.082;2023-07-13T04:10:37;0.75;;;0.60;;
11171;SDS011;5642;50.830;12.082;2023-07-13T04:13:04;0.80;;;0.80;;
11171;SDS011;5642;50.830;12.082;2023-07-13T04:15:31;0.82;;;0.82;;
11171;SDS011;5642;50.830;12.082;2023-07-13T04:17:58;0.93;;;0.82;;
11171;SDS011;5642;50.830;12.082;2023-07-13T04:20:25;0.80;;;0.80;;
11171;SDS011;5642;50.830;12.082;2023-07-13T04:22:52;0.75;;;0.75;;
11171;SDS011;5642;50.830;12.082;2023-07-13T04:25:21;0.85;;;0.85;;
11171;SDS011;5642;50.830;12.082;2023-07-13T04:27:47;0.80;;;0.80;;
11171;SDS011;5642;50.830;12.082;2023-07-13T04:30:13;0.70;;;0.70;;
11171;SDS011;5642;50.830;12.082;2023-07-13T04:32:39;1.30;;;0.70;;
11171;SDS011;5642;50.830;12.082;2023-07-13T04:35:05;0.68;;;0.68;;
11171;SDS011;5642;50.830;12.082;2023-07-13T04:37:32;0.80;;;0.80;;
11171;SDS011;5642;50.830;12.082;2023-07-13T04:39:57;0.60;;;0.60;;
11171;SDS011;5642;50.830;12.082;2023-07-13T04:42:23;0.80;;;0.80;;
11171;SDS011;5642;50.830;12.082;2023-07-13T04:44:50;0.60;;;0.60;;
11171;SDS011;5642;50.830;12.082;2023-07-13T04:47:17;0.70;;;0.70;;
11171;SDS011;5642;50.830;12.082;2023-07-13T04:49:44;0.90;;;0.90;;
11171;SDS011;5642;50.830;12.082;2023-07-13T04:52:11;0.70;;;0.70;;
11171;SDS011;5642;50.830;12.082;2023-07-13T04:54:37;0.70;;;0.70;;
11171;SDS011;5642;50.830;12.082;2023-07-13T04:57:05;0.60;;;0.60;;
11171;SDS011;5642;50.830;12.082;2023-07-13T04:59:32;1.05;;;0.65;;
11171;SDS011;5642;50.830;12.082;2023-07-13T05:01:58;1.83;;;0.85;;
11171;SDS011;5642;50.830;12.082;2023-07-13T05:04:24;0.70;;;0.70;;
11171;SDS011;5642;50.830;12.082;2023-07-13T05:06:50;1.02;;;0.90;;
11171;SDS011;5642;50.830;12.082;2023-07-13T05:09:16;0.70;;;0.70;;
11171;SDS011;5642;50.830;12.082;2023-07-13T05:11:48;0.57;;;0.57;;
11171;SDS011;5642;50.830;12.082;2023-07-13T05:14:14;0.60;;;0.60;;
11171;SDS011;5642;50.830;12.082;2023-07-13T05:16:42;0.88;;;0.70;;
11171;SDS011;5642;50.830;12.082;2023-07-13T05:19:08;1.08;;;0.70;;
11171;SDS011;5642;50.830;12.082;2023-07-13T05:21:34;1.27;;;0.60;;
11171;SDS011;5642;50.830;12.082;2023-07-13T05:24:00;0.93;;;0.77;;
11171;SDS011;5642;50.830;12.082;2023-07-13T05:26:28;0.57;;;0.55;;
11171;SDS011;5642;50.830;12.082;2023-07-13T05:28:54;0.88;;;0.70;;
11171;SDS011;5642;50.830;12.082;2023-07-13T05:31:20;0.57;;;0.57;;
11171;SDS011;5642;50.830;12.082;2023-07-13T05:33:46;1.13;;;0.73;;
11171;SDS011;5642;50.830;12.082;2023-07-13T05:36:12;5.80;;;0.70;;
11171;SDS011;5642;50.830;12.082;2023-07-13T05:38:38;0.93;;;0.70;;
11171;SDS011;5642;50.830;12.082;2023-07-13T05:41:06;0.93;;;0.60;;
11171;SDS011;5642;50.830;12.082;2023-07-13T05:43:33;0.82;;;0.50;;
11171;SDS011;5642;50.830;12.082;2023-07-13T05:45:59;0.57;;;0.57;;
11171;SDS011;5642;50.830;12.082;2023-07-13T05:48:25;0.80;;;0.68;;
11171;SDS011;5642;50.830;12.082;2023-07-13T05:50:52;0.80;;;0.60;;
11171;SDS011;5642;50.830;12.082;2023-07-13T05:53:18;1.70;;;0.73;;
11171;SDS011;5642;50.830;12.082;2023-07-13T05:55:44;0.65;;;0.65;;
11171;SDS011;5642;50.830;12.082;2023-07-13T05:58:13;1.30;;;0.70;;
11171;SDS011;5642;50.830;12.082;2023-07-13T06:00:39;0.60;;;0.60;;
11171;SDS011;5642;50.830;12.082;2023-07-13T06:03:06;0.57;;;0.57;;
11171;SDS011;5642;50.830;12.082;2023-07-13T06:05:33;0.60;;;0.60;;
11171;SDS011;5642;50.830;12.082;2023-07-13T06:08:01;0.50;;;0.50;;
11171;SDS011;5642;50.830;12.082;2023-07-13T06:10:27;3.08;;;0.60;;
11171;SDS011;5642;50.830;12.082;2023-07-13T06:12:53;0.50;;;0.50;;
11171;SDS011;5642;50.830;12.082;2023-07-13T06:15:19;0.60;;;0.60;;
11171;SDS011;5642;50.830;12.082;2023-07-13T06:17:46;2.13;;;0.60;;
11171;SDS011;5642;50.830;12.082;2023-07-13T06:20:14;0.60;;;0.60;;
11171;SDS011;5642;50.830;12.082;2023-07-13T06:22:40;0.70;;;0.70;;
11171;SDS011;5642;50.830;12.082;2023-07-13T06:25:06;0.50;;;0.50;;
11171;SDS011;5642;50.830;12.082;2023-07-13T06:27:33;0.60;;;0.60;;
11171;SDS011;5642;50.830;12.082;2023-07-13T06:29:59;0.63;;;0.63;;
11171;SDS011;5642;50.830;12.082;2023-07-13T06:32:32;0.68;;;0.50;;
11171;SDS011;5642;50.830;12.082;2023-07-13T06:34:58;0.63;;;0.63;;
11171;SDS011;5642;50.830;12.082;2023-07-13T06:37:26;0.60;;;0.60;;
11171;SDS011;5642;50.830;12.082;2023-07-13T06:39:52;1.38;;;0.57;;
11171;SDS011;5642;50.830;12.082;2023-07-13T06:42:18;0.50;;;0.50;;
11171;SDS011;5642;50.830;12.082;2023-07-13T06:44:44;0.80;;;0.80;;
11171;SDS011;5642;50.830;12.082;2023-07-13T06:47:11;0.77;;;0.65;;
11171;SDS011;5642;50.830;12.082;2023-07-13T06:49:37;0.75;;;0.75;;
11171;SDS011;5642;50.830;12.082;2023-07-13T06:52:03;2.08;;;0.80;;
11171;SDS011;5642;50.830;12.082;2023-07-13T06:54:32;1.70;;;1.02;;
11171;SDS011;5642;50.830;12.082;2023-07-13T06:56:58;0.65;;;0.65;;
11171;SDS011;5642;50.830;12.082;2023-07-13T06:59:25;1.10;;;0.77;;
11171;SDS011;5642;50.830;12.082;2023-07-13T07:01:52;1.98;;;0.80;;
11171;SDS011;5642;50.830;12.082;2023-07-13T07:04:18;1.70;;;0.80;;
11171;SDS011;5642;50.830;12.082;2023-07-13T07:06:44;0.90;;;0.80;;
11171;SDS011;5642;50.830;12.082;2023-07-13T07:09:11;0.70;;;0.68;;
11171;SDS011;5642;50.830;12.082;2023-07-13T07:11:38;0.70;;;0.70;;
11171;SDS011;5642;50.830;12.082;2023-07-13T07:14:05;1.05;;;0.90;;
11171;SDS011;5642;50.830;12.082;2023-07-13T07:16:32;1.00;;;0.80;;
11171;SDS011;5642;50.830;12.082;2023-07-13T07:18:58;0.65;;;0.65;;
11171;SDS011;5642;50.830;12.082;2023-07-13T07:21:24;1.00;;;0.80;;
11171;SDS011;5642;50.830;12.082;2023-07-13T07:23:51;0.75;;;0.70;;
11171;SDS011;5642;50.830;12.082;2023-07-13T07:26:18;0.70;;;0.65;;
11171;SDS011;5642;50.830;12.082;2023-07-13T07:28:44;0.73;;;0.60;;
11171;SDS011;5642;50.830;12.082;2023-07-13T07:31:11;0.90;;;0.80;;
11171;SDS011;5642;50.830;12.082;2023-07-13T07:33:37;1.45;;;1.05;;
11171;SDS011;5642;50.830;12.082;2023-07-13T07:36:03;1.02;;;0.82;;
11171;SDS011;5642;50.830;12.082;2023-07-13T07:38:30;0.90;;;0.90;;
11171;SDS011;5642;50.830;12.082;2023-07-13T07:40:56;1.67;;;0.80;;
11171;SDS011;5642;50.830;12.082;2023-07-13T07:43:22;0.82;;;0.65;;
11171;SDS011;5642;50.830;12.082;2023-07-13T07:45:48;1.00;;;0.90;;
11171;SDS011;5642;50.830;12.082;2023-07-13T07:48:14;1.35;;;0.70;;
11171;SDS011;5642;50.830;12.082;2023-07-13T07:50:43;0.68;;;0.68;;
11171;SDS011;5642;50.830;12.082;2023-07-13T07:53:10;0.85;;;0.80;;
11171;SDS011;5642;50.830;12.082;2023-07-13T07:55:36;1.38;;;0.90;;
11171;SDS011;5642;50.830;12.082;2023-07-13T07:58:02;2.85;;;0.88;;
11171;SDS011;5642;50.830;12.082;2023-07-13T08:00:28;2.45;;;0.70;;
11171;SDS011;5642;50.830;12.082;2023-07-13T08:02:58;0.80;;;0.80;;
11171;SDS011;5642;50.830;12.082;2023-07-13T08:05:25;1.58;;;0.60;;
11171;SDS011;5642;50.830;12.082;2023-07-13T08:07:51;1.02;;;0.70;;
11171;SDS011;5642;50.830;12.082;2023-07-13T08:10:17;2.15;;;1.00;;
11171;SDS011;5642;50.830;12.082;2023-07-13T08:12:43;1.05;;;0.80;;
11171;SDS011;5642;50.830;12.082;2023-07-13T08:15:10;0.90;;;0.85;;
11171;SDS011;5642;50.830;12.082;2023-07-13T08:17:39;1.15;;;0.90;;
11171;SDS011;5642;50.830;12.082;2023-07-13T08:20:05;1.00;;;0.90;;
11171;SDS011;5642;50.830;12.082;2023-07-13T08:22:31;1.83;;;0.98;;
11171;SDS011;5642;50.830;12.082;2023-07-13T08:24:58;1.25;;;0.60;;
11171;SDS011;5642;50.830;12.082;2023-07-13T08:27:25;1.10;;;0.98;;
11171;SDS011;5642;50.830;12.082;2023-07-13T08:29:53;0.80;;;0.80;;
11171;SDS011;5642;50.830;12.082;2023-07-13T08:32:20;0.80;;;0.80;;
11171;SDS011;5642;50.830;12.082;2023-07-13T08:34:47;1.08;;;0.68;;
11171;SDS011;5642;50.830;12.082;2023-07-13T08:37:15;1.10;;;0.70;;
11171;SDS011;5642;50.830;12.082;2023-07-13T08:39:42;2.80;;;1.15;;
11171;SDS011;5642;50.830;12.082;2023-07-13T08:47:35;0.82;;;0.80;;
11171;SDS011;5642;50.830;12.082;2023-07-13T08:50:04;1.58;;;0.80;;
11171;SDS011;5642;50.830;12.082;2023-07-13T08:52:38;0.75;;;0.70;;
11171;SDS011;5642;50.830;12.082;2023-07-13T08:55:11;0.50;;;0.50;;
11171;SDS011;5642;50.830;12.082;2023-07-13T08:57:40;0.73;;;0.55;;
11171;SDS011;5642;50.830;12.082;2023-07-13T09:00:10;1.27;;;0.70;;
11171;SDS011;5642;50.830;12.082;2023-07-13T09:02:42;0.52;;;0.52;;
11171;SDS011;5642;50.830;12.082;2023-07-13T09:05:18;1.60;;;0.90;;
11171;SDS011;5642;50.830;12.082;2023-07-13T09:10:31;0.80;;;0.80;;
11171;SDS011;5642;50.830;12.082;2023-07-13T09:16:11;0.82;;;0.80;;
11171;SDS011;5642;50.830;12.082;2023-07-13T09:18:39;0.77;;;0.60;;
11171;SDS011;5642;50.830;12.082;2023-07-13T09:21:10;0.80;;;0.80;;
11171;SDS011;5642;50.830;12.082;2023-07-13T09:23:37;0.88;;;0.75;;
11171;SDS011;5642;50.830;12.082;2023-07-13T09:26:14;1.35;;;0.80;;
11171;SDS011;5642;50.830;12.082;2023-07-13T09:28:48;0.80;;;0.80;;
11171;SDS011;5642;50.830;12.082;2023-07-13T09:31:20;1.35;;;0.73;;
11171;SDS011;5642;50.830;12.082;2023-07-13T09:33:51;0.80;;;0.80;;
11171;SDS011;5642;50.830;12.082;2023-07-13T09:36:19;0.70;;;0.70;;
11171;SDS011;5642;50.830;12.082;2023-07-13T09:38:54;0.90;;;0.90;;
11171;SDS011;5642;50.830;12.082;2023-07-13T09:44:17;1.00;;;0.85;;
11171;SDS011;5642;50.830;12.082;2023-07-13T09:46:54;3.25;;;1.27;;
11171;SDS011;5642;50.830;12.082;2023-07-13T09:49:25;3.72;;;1.08;;
11171;SDS011;5642;50.830;12.082;2023-07-13T09:52:00;1.23;;;0.90;;
11171;SDS011;5642;50.830;12.082;2023-07-13T09:54:29;2.17;;;0.98;;
11171;SDS011;5642;50.830;12.082;2023-07-13T09:56:59;1.33;;;1.10;;
11171;SDS011;5642;50.830;12.082;2023-07-13T09:59:30;1.98;;;1.00;;
11171;SDS011;5642;50.830;12.082;2023-07-13T10:02:00;1.17;;;0.90;;
11171;SDS011;5642;50.830;12.082;2023-07-13T10:04:29;2.20;;;0.80;;
11171;SDS011;5642;50.830;12.082;2023-07-13T10:07:04;2.13;;;0.90;;
11171;SDS011;5642;50.830;12.082;2023-07-13T10:09:38;3.97;;;1.10;;
11171;SDS011;5642;50.830;12.082;2023-07-13T10:12:13;2.72;;;1.10;;
11171;SDS011;5642;50.830;12.082;2023-07-13T10:14:41;1.08;;;0.80;;
11171;SDS011;5642;50.830;12.082;2023-07-13T10:17:10;0.88;;;0.70;;
11171;SDS011;5642;50.830;12.082;2023-07-13T10:19:41;2.05;;;1.00;;
11171;SDS011;5642;50.830;12.082;2023-07-13T10:22:27;1.80;;;0.90;;
11171;SDS011;5642;50.830;12.082;2023-07-13T10:24:55;0.70;;;0.70;;
11171;SDS011;5642;50.830;12.082;2023-07-13T10:27:32;0.80;;;0.80;;
11171;SDS011;5642;50.830;12.082;2023-07-13T10:32:49;0.70;;;0.70;;
11171;SDS011;5642;50.830;12.082;2023-07-13T10:35:16;0.60;;;0.60;;
11171;SDS011;5642;50.830;12.082;2023-07-13T10:37:48;1.00;;;0.90;;
11171;SDS011;5642;50.830;12.082;2023-07-13T10:40:23;0.77;;;0.73;;
11171;SDS011;5642;50.830;12.082;2023-07-13T10:43:00;1.13;;;0.80;;
11171;SDS011;5642;50.830;12.082;2023-07-13T10:45:33;0.80;;;0.65;;
11171;SDS011;5642;50.830;12.082;2023-07-13T10:48:02;1.55;;;0.93;;
11171;SDS011;5642;50.830;12.082;2023-07-13T10:50:30;0.88;;;0.80;;
11171;SDS011;5642;50.830;12.082;2023-07-13T10:53:03;0.70;;;0.70;;
11171;SDS011;5642;50.830;12.082;2023-07-13T10:58:20;0.60;;;0.60;;
11171;SDS011;5642;50.830;12.082;2023-07-13T11:00:53;0.70;;;0.70;;
11171;SDS011;5642;50.830;12.082;2023-07-13T11:03:37;0.90;;;0.80;;
11171;SDS011;5642;50.830;12.082;2023-07-13T11:06:16;1.35;;;0.60;;
11171;SDS011;5642;50.830;12.082;2023-07-13T11:12:07;4.35;;;1.15;;
11171;SDS011;5642;50.830;12.082;2023-07-13T11:14:37;1.20;;;1.00;;
11171;SDS011;5642;50.830;12.082;2023-07-13T11:20:38;1.08;;;0.57;;
11171;SDS011;5642;50.830;12.082;2023-07-13T11:22:50;0.77;;;0.77;;
11171;SDS011;5642;50.830;12.082;2023-07-13T11:25:35;0.57;;;0.55;;
11171;SDS011;5642;50.830;12.082;2023-07-13T11:30:40;2.20;;;0.90;;
11171;SDS011;5642;50.830;12.082;2023-07-13T11:33:16;0.88;;;0.88;;
11171;SDS011;5642;50.830;12.082;2023-07-13T11:35:59;0.65;;;0.60;;
11171;SDS011;5642;50.830;12.082;2023-07-13T11:38:41;0.57;;;0.52;;
11171;SDS011;5642;50.830;12.082;2023-07-13T11:43:49;0.50;;;0.50;;
11171;SDS011;5642;50.830;12.082;2023-07-13T11:46:23;1.13;;;0.60;;
11171;SDS011;5642;50.830;12.082;2023-07-13T11:48:51;0.77;;;0.68;;
11171;SDS011;5642;50.830;12.082;2023-07-13T11:51:23;0.55;;;0.50;;
11171;SDS011;5642;50.830;12.082;2023-07-13T11:53:53;0.75;;;0.60;;
11171;SDS011;5642;50.830;12.082;2023-07-13T11:56:21;0.28;;;0.28;;
11171;SDS011;5642;50.830;12.082;2023-07-13T11:58:50;0.40;;;0.40;;
11171;SDS011;5642;50.830;12.082;2023-07-13T12:01:20;0.32;;;0.32;;
11171;SDS011;5642;50.830;12.082;2023-07-13T12:03:49;0.35;;;0.35;;
11171;SDS011;5642;50.830;12.082;2023-07-13T12:06:28;0.20;;;0.20;;
11171;SDS011;5642;50.830;12.082;2023-07-13T12:08:57;0.35;;;0.30;;
11171;SDS011;5642;50.830;12.082;2023-07-13T12:11:25;0.25;;;0.25;;
11171;SDS011;5642;50.830;12.082;2023-07-13T12:13:51;0.40;;;0.40;;
11171;SDS011;5642;50.830;12.082;2023-07-13T12:19:02;0.30;;;0.30;;
11171;SDS011;5642;50.830;12.082;2023-07-13T12:21:32;0.28;;;0.28;;
11171;SDS011;5642;50.830;12.082;2023-07-13T12:24:03;0.20;;;0.20;;
11171;SDS011;5642;50.830;12.082;2023-07-13T12:26:30;0.73;;;0.43;;
11171;SDS011;5642;50.830;12.082;2023-07-13T12:29:01;0.38;;;0.32;;
11171;SDS011;5642;50.830;12.082;2023-07-13T12:34:06;2.00;;;0.50;;
11171;SDS011;5642;50.830;12.082;2023-07-13T12:36:38;0.30;;;0.20;;
11171;SDS011;5642;50.830;12.082;2023-07-13T12:39:13;1.55;;;0.60;;
11171;SDS011;5642;50.830;12.082;2023-07-13T12:41:39;0.40;;;0.30;;
11171;SDS011;5642;50.830;12.082;2023-07-13T12:44:10;2.40;;;0.60;;
11171;SDS011;5642;50.830;12.082;2023-07-13T12:46:38;2.67;;;0.40;;
11171;SDS011;5642;50.830;12.082;2023-07-13T12:49:06;0.57;;;0.40;;
11171;SDS011;5642;50.830;12.082;2023-07-13T12:51:33;0.22;;;0.22;;
11171;SDS011;5642;50.830;12.082;2023-07-13T12:54:32;0.30;;;0.30;;
11171;SDS011;5642;50.830;12.082;2023-07-13T12:56:53;0.43;;;0.20;;
11171;SDS011;5642;50.830;12.082;2023-07-13T12:59:22;0.30;;;0.30;;
11171;SDS011;5642;50.830;12.082;2023-07-13T13:01:51;0.40;;;0.32;;
11171;SDS011;5642;50.830;12.082;2023-07-13T13:04:19;0.30;;;0.30;;
11171;SDS011;5642;50.830;12.082;2023-07-13T13:06:48;0.63;;;0.40;;
11171;SDS011;5642;50.830;12.082;2023-07-13T13:09:15;0.30;;;0.30;;
11171;SDS011;5642;50.830;12.082;2023-07-13T13:11:43;0.88;;;0.38;;
11171;SDS011;5642;50.830;12.082;2023-07-13T13:14:09;0.35;;;0.35;;
11171;SDS011;5642;50.830;12.082;2023-07-13T13:16:43;0.30;;;0.30;;
11171;SDS011;5642;50.830;12.082;2023-07-13T13:21:38;0.40;;;0.30;;
11171;SDS011;5642;50.830;12.082;2023-07-13T13:24:10;0.77;;;0.45;;
11171;SDS011;5642;50.830;12.082;2023-07-13T13:26:37;2.83;;;0.50;;
11171;SDS011;5642;50.830;12.082;2023-07-13T13:29:10;0.40;;;0.30;;
11171;SDS011;5642;50.830;12.082;2023-07-13T13:31:50;0.30;;;0.30;;
11171;SDS011;5642;50.830;12.082;2023-07-13T13:34:18;0.65;;;0.45;;
11171;SDS011;5642;50.830;12.082;2023-07-13T13:36:45;0.30;;;0.30;;
11171;SDS011;5642;50.830;12.082;2023-07-13T13:39:20;0.20;;;0.20;;
11171;SDS011;5642;50.830;12.082;2023-07-13T13:41:50;0.22;;;0.20;;
11171;SDS011;5642;50.830;12.082;2023-07-13T13:44:18;0.32;;;0.32;;
11171;SDS011;5642;50.830;12.082;2023-07-13T13:46:46;0.40;;;0.40;;
11171;SDS011;5642;50.830;12.082;2023-07-13T13:49:16;0.65;;;0.50;;
11171;SDS011;5642;50.830;12.082;2023-07-13T13:51:44;0.35;;;0.32;;
11171;SDS011;5642;50.830;12.082;2023-07-13T13:54:14;0.25;;;0.25;;
11171;SDS011;5642;50.830;12.082;2023-07-13T13:56:42;0.50;;;0.50;;
11171;SDS011;5642;50.830;12.082;2023-07-13T13:59:11;1.88;;;0.40;;
11171;SDS011;5642;50.830;12.082;2023-07-13T14:01:37;1.67;;;0.40;;
11171;SDS011;5642;50.830;12.082;2023-07-13T14:04:04;0.82;;;0.55;;
11171;SDS011;5642;50.830;12.082;2023-07-13T14:06:32;0.50;;;0.50;;
11171;SDS011;5642;50.830;12.082;2023-07-13T14:09:02;0.47;;;0.47;;
11171;SDS011;5642;50.830;12.082;2023-07-13T14:11:30;0.30;;;0.30;;
11171;SDS011;5642;50.830;12.082;2023-07-13T14:13:58;0.50;;;0.30;;
11171;SDS011;5642;50.830;12.082;2023-07-13T14:16:29;0.50;;;0.50;;
11171;SDS011;5642;50.830;12.082;2023-07-13T14:18:58;0.50;;;0.45;;
11171;SDS011;5642;50.830;12.082;2023-07-13T14:21:26;0.40;;;0.40;;
11171;SDS011;5642;50.830;12.082;2023-07-13T14:23:54;0.40;;;0.40;;
11171;SDS011;5642;50.830;12.082;2023-07-13T14:26:21;0.50;;;0.50;;
11171;SDS011;5642;50.830;12.082;2023-07-13T14:28:51;0.32;;;0.30;;
11171;SDS011;5642;50.830;12.082;2023-07-13T14:31:21;0.50;;;0.50;;
11171;SDS011;5642;50.830;12.082;2023-07-13T14:33:48;0.90;;;0.68;;
11171;SDS011;5642;50.830;12.082;2023-07-13T14:38:46;0.30;;;0.30;;
11171;SDS011;5642;50.830;12.082;2023-07-13T14:41:12;1.05;;;0.50;;
11171;SDS011;5642;50.830;12.082;2023-07-13T14:43:39;0.43;;;0.43;;
11171;SDS011;5642;50.830;12.082;2023-07-13T14:46:05;0.60;;;0.60;;
11171;SDS011;5642;50.830;12.082;2023-07-13T14:48:31;0.73;;;0.43;;
11171;SDS011;5642;50.830;12.082;2023-07-13T14:50:58;1.83;;;0.43;;
11171;SDS011;5642;50.830;12.082;2023-07-13T14:53:25;0.30;;;0.30;;
11171;SDS011;5642;50.830;12.082;2023-07-13T14:55:55;0.52;;;0.52;;
11171;SDS011;5642;50.830;12.082;2023-07-13T14:58:21;0.47;;;0.47;;
11171;SDS011;5642;50.830;12.082;2023-07-13T15:00:48;0.63;;;0.38;;
11171;SDS011;5642;50.830;12.082;2023-07-13T15:03:20;0.43;;;0.43;;
11171;SDS011;5642;50.830;12.082;2023-07-13T15:05:48;0.43;;;0.43;;
11171;SDS011;5642;50.830;12.082;2023-07-13T15:08:15;0.50;;;0.38;;
11171;SDS011;5642;50.830;12.082;2023-07-13T15:10:41;0.65;;;0.52;;
11171;SDS011;5642;50.830;12.082;2023-07-13T15:13:18;0.30;;;0.30;;
11171;SDS011;5642;50.830;12.082;2023-07-13T15:15:47;0.30;;;0.30;;
11171;SDS011;5642;50.830;12.082;2023-07-13T15:18:19;0.40;;;0.40;;
11171;SDS011;5642;50.830;12.082;2023-07-13T15:20:48;0.50;;;0.43;;
11171;SDS011;5642;50.830;12.082;2023-07-13T15:23:16;0.60;;;0.60;;
11171;SDS011;5642;50.830;12.082;2023-07-13T15:25:43;0.60;;;0.55;;
11171;SDS011;5642;50.830;12.082;2023-07-13T15:28:10;0.38;;;0.35;;
11171;SDS011;5642;50.830;12.082;2023-07-13T15:30:41;0.38;;;0.38;;
11171;SDS011;5642;50.830;12.082;2023-07-13T15:35:53;0.30;;;0.30;;
11171;SDS011;5642;50.830;12.082;2023-07-13T15:38:21;0.70;;;0.38;;
11171;SDS011;5642;50.830;12.082;2023-07-13T15:40:49;0.40;;;0.40;;
11171;SDS011;5642;50.830;12.082;2023-07-13T15:43:17;0.40;;;0.40;;
11171;SDS011;5642;50.830;12.082;2023-07-13T15:45:44;0.40;;;0.40;;
11171;SDS011;5642;50.830;12.082;2023-07-13T15:50:44;0.43;;;0.40;;
11171;SDS011;5642;50.830;12.082;2023-07-13T15:53:20;0.40;;;0.30;;
11171;SDS011;5642;50.830;12.082;2023-07-13T15:55:49;0.50;;;0.50;;